»·PEaware :: N6423L KSMX-KBFL

N6423L :: KSMX-KBFL

FLIGHT INFORMATION

Flight Status: Arrived
Operator: Privately registered:
United States
More flights under this callsign
Pilot: Alexander M. (19327)
Aircraft: CESSNA 152 AEROBAT
(C152)
More flights by this aircraft type
Origin: KSMX Santa Maria Pub/Capt Hancock
United States
Destination: KBFL Meadows
United States
More flights between these airports :: More routes between these airports
Route: +
File this flight plan on PilotEdge
Remarks: cat5
Altitude:
(Current/Filed)
0ft
Speed:
(Current/Filed)
0kts
Departed: 16-Oct-18 08:47 AM
Arrived: 16-Oct-18 09:43 AM
Distance/Time
Traveled:
76nm/0:56
Distance/Time
To Go:
Arrived

Flight Plot

Page will automatically refresh every two minutes.


Map Options




Map Legend


Flown Route
Filed Route
Departure Airport
Arrival Airport
Navaid (VOR, NDB)
Fix

Horizontal Profiles

Position Reports

Time Latitude Longitude Heading Altitude Ground
Speed
16-Oct-18 08:39 34.901762 -120.452497 228 264ft 0kts
16-Oct-18 08:40 34.901762 -120.452497 228 264ft 0kts
16-Oct-18 08:41 34.900684 -120.452825 134 264ft 9kts
16-Oct-18 08:42 34.898455 -120.450189 137 264ft 11kts
16-Oct-18 08:43 34.896810 -120.448138 136 264ft 16kts
16-Oct-18 08:44 34.894079 -120.444597 113 264ft 11kts
16-Oct-18 08:45 34.893359 -120.444953 330 264ft 0kts
16-Oct-18 08:46 34.893359 -120.444953 330 264ft 0kts
16-Oct-18 08:47 34.893336 -120.445231 175 264ft 0kts
16-Oct-18 08:48 34.893179 -120.446356 313 264ft 8kts
16-Oct-18 08:49 34.906329 -120.462210 321 945ft 75kts
16-Oct-18 08:50 34.922812 -120.467158 50 1876ft 70kts
16-Oct-18 08:51 34.911209 -120.445029 140 2144ft 99kts
16-Oct-18 08:52 34.901277 -120.419884 71 2537ft 81kts
16-Oct-18 08:53 34.910282 -120.394706 61 3182ft 81kts
16-Oct-18 08:54 34.918693 -120.369309 73 3806ft 80kts
16-Oct-18 08:55 34.924453 -120.344420 71 4604ft 76kts
16-Oct-18 08:56 34.931597 -120.320164 66 5357ft 74kts
16-Oct-18 08:57 34.938756 -120.296082 70 5997ft 81kts
16-Oct-18 08:58 34.945229 -120.271195 68 6674ft 79kts
16-Oct-18 08:59 34.951716 -120.244518 70 7075ft 82kts
16-Oct-18 09:00 34.958748 -120.217201 70 7351ft 90kts
16-Oct-18 09:01 34.969208 -120.189294 57 7465ft 89kts
16-Oct-18 09:02 34.983394 -120.161895 54 7259ft 96kts
16-Oct-18 09:03 34.996225 -120.134699 57 7265ft 89kts
16-Oct-18 09:04 35.008305 -120.107089 60 7373ft 93kts
16-Oct-18 09:05 35.018810 -120.077804 64 7352ft 95kts
16-Oct-18 09:06 35.028683 -120.047898 63 7316ft 94kts
16-Oct-18 09:07 35.040675 -120.019653 52 7287ft 92kts
16-Oct-18 09:08 35.054454 -119.993177 56 7323ft 92kts
16-Oct-18 09:09 35.067050 -119.965272 59 7355ft 94kts
16-Oct-18 09:10 35.079519 -119.937020 61 7347ft 91kts
16-Oct-18 09:11 35.091159 -119.909291 52 7318ft 92kts
16-Oct-18 09:12 35.104617 -119.887214 51 7327ft 92kts
16-Oct-18 09:13 35.119664 -119.861939 55 7326ft 92kts
16-Oct-18 09:14 35.131696 -119.834015 63 7300ft 94kts
16-Oct-18 09:15 35.142023 -119.805209 65 7328ft 91kts
16-Oct-18 09:16 35.156361 -119.779804 46 7311ft 91kts
16-Oct-18 09:17 35.173563 -119.756752 52 7286ft 93kts
16-Oct-18 09:18 35.188392 -119.731647 50 7289ft 92kts
16-Oct-18 09:19 35.205526 -119.708352 50 7294ft 93kts
16-Oct-18 09:20 35.217229 -119.679556 75 7269ft 98kts
16-Oct-18 09:21 35.228489 -119.650592 60 7272ft 95kts
16-Oct-18 09:22 35.240413 -119.622126 59 7286ft 95kts
16-Oct-18 09:23 35.254168 -119.595327 57 7291ft 93kts
16-Oct-18 09:24 35.267250 -119.567945 55 7314ft 94kts
16-Oct-18 09:25 35.281463 -119.541311 52 7335ft 92kts
16-Oct-18 09:26 35.294547 -119.513870 60 7321ft 92kts
16-Oct-18 09:27 35.305685 -119.485481 75 7273ft 93kts
16-Oct-18 09:28 35.312520 -119.455433 69 6891ft 90kts
16-Oct-18 09:29 35.322551 -119.427356 63 6404ft 90kts
16-Oct-18 09:30 35.331902 -119.398815 64 6008ft 90kts
16-Oct-18 09:31 35.346173 -119.373975 52 5620ft 91kts
16-Oct-18 09:32 35.359208 -119.348536 57 5274ft 88kts
16-Oct-18 09:33 35.367281 -119.321109 86 4900ft 92kts
16-Oct-18 09:34 35.366497 -119.290257 89 4577ft 90kts
16-Oct-18 09:35 35.369939 -119.260354 78 4258ft 88kts
16-Oct-18 09:36 35.373259 -119.230703 66 3958ft 89kts
16-Oct-18 09:37 35.374956 -119.206101 91 3770ft 90kts
16-Oct-18 09:38 35.378127 -119.171427 77 3512ft 88kts
16-Oct-18 09:39 35.381894 -119.147534 74 3357ft 90kts
16-Oct-18 09:40 35.386299 -119.109902 81 3297ft 96kts
16-Oct-18 09:41 35.389205 -119.084616 84 2811ft 86kts
16-Oct-18 09:42 35.402931 -119.060243 46 1632ft 79kts
16-Oct-18 09:43 35.413778 -119.045631 46 1039ft 60kts
16-Oct-18 09:44 35.426994 -119.048027 323 580ft 62kts
16-Oct-18 09:45 35.437405 -119.060430 312 498ft 27kts
16-Oct-18 09:46 35.439540 -119.064269 227 498ft 4kts
16-Oct-18 09:47 35.439527 -119.064286 226 498ft 0kts
16-Oct-18 09:48 35.436529 -119.064085 129 498ft 17kts
16-Oct-18 09:49 35.433557 -119.060503 132 498ft 14kts
16-Oct-18 09:50 35.430380 -119.056673 137 498ft 16kts
16-Oct-18 09:51 35.427404 -119.053092 134 498ft 14kts
16-Oct-18 09:52 35.424780 -119.053000 281 498ft 10kts
16-Oct-18 09:53 35.424900 -119.053410 137 498ft 0kts
16-Oct-18 09:54 35.424900 -119.053410 137 498ft 0kts
16-Oct-18 09:55 35.424900 -119.053410 137 498ft 0kts
16-Oct-18 09:56 35.424900 -119.053410 137 498ft 0kts
16-Oct-18 09:57 35.424900 -119.053410 137 498ft 0kts
16-Oct-18 09:58 35.424900 -119.053410 137 498ft 0kts
16-Oct-18 09:59 35.424900 -119.053410 137 498ft 0kts

Navigation Log

Ident Type
1. KSMX Airport
2. KBFL Airport